createdAt,value
2018-11-28T00:00:30.087Z,39.20
2018-11-28T00:02:59.485Z,48.53
2018-11-28T00:05:27.766Z,36.10
2018-11-28T00:07:56.030Z,45.87
2018-11-28T00:10:24.352Z,42.43
2018-11-28T00:12:52.686Z,38.17
2018-11-28T00:15:21.002Z,52.40
2018-11-28T00:17:49.293Z,45.70
2018-11-28T00:20:19.420Z,47.20
2018-11-28T00:22:47.902Z,50.93
2018-11-28T00:25:16.806Z,40.77
2018-11-28T00:27:45.092Z,45.43
2018-11-28T00:30:19.863Z,42.23
2018-11-28T00:32:48.139Z,45.57
2018-11-28T00:35:19.066Z,44.17
2018-11-28T00:37:47.371Z,49.43
2018-11-28T00:40:16.719Z,39.83
2018-11-28T00:42:44.992Z,43.87
2018-11-28T00:45:16.228Z,46.17
2018-11-28T00:47:44.546Z,55.03
2018-11-28T00:50:13.875Z,43.67
2018-11-28T00:52:42.200Z,44.37
2018-11-28T00:55:11.793Z,47.50
2018-11-28T00:57:40.378Z,53.70
2018-11-28T01:00:13.280Z,45.50
2018-11-28T01:02:41.813Z,45.03
2018-11-28T01:05:10.947Z,47.60
2018-11-28T01:07:39.447Z,53.03
2018-11-28T01:10:17.152Z,43.53
2018-11-28T01:12:45.804Z,49.57
2018-11-28T01:15:15.016Z,43.27
2018-11-28T01:17:43.409Z,48.80
2018-11-28T01:20:13.392Z,36.70
2018-11-28T01:22:41.688Z,49.13
2018-11-28T01:25:11.855Z,42.27
2018-11-28T01:27:40.180Z,51.33
2018-11-28T01:30:12.041Z,56.80
2018-11-28T01:32:40.543Z,50.20
2018-11-28T01:35:11.624Z,53.50
2018-11-28T01:37:40.048Z,44.73
2018-11-28T01:40:16.551Z,48.50
2018-11-28T01:42:44.806Z,54.90
2018-11-28T01:45:13.944Z,44.50
2018-11-28T01:47:42.414Z,52.20
2018-11-28T01:50:11.727Z,43.73
2018-11-28T01:52:40.006Z,51.50
2018-11-28T01:55:10.457Z,53.33
2018-11-28T01:57:38.801Z,43.83
2018-11-28T02:00:18.999Z,46.90
2018-11-28T02:02:48.383Z,42.77
2018-11-28T02:05:16.991Z,40.93
2018-11-28T02:07:45.460Z,61.67
2018-11-28T02:10:15.303Z,56.67
2018-11-28T02:12:43.648Z,61.17
2018-11-28T02:15:18.914Z,48.47
2018-11-28T02:17:47.240Z,42.20
2018-11-28T02:20:17.156Z,52.93
2018-11-28T02:22:45.760Z,40.67
2018-11-28T02:25:14.920Z,45.70
2018-11-28T02:27:43.259Z,49.57
2018-11-28T02:30:13.656Z,47.30
2018-11-28T02:32:41.919Z,45.67
2018-11-28T02:35:12.396Z,63.27
2018-11-28T02:37:40.700Z,50.90
2018-11-28T02:40:10.057Z,46.20
2018-11-28T02:42:38.557Z,50.03
2018-11-28T02:45:14.216Z,40.27
2018-11-28T02:47:42.468Z,50.27
2018-11-28T02:50:10.731Z,46.13
2018-11-28T02:52:39.246Z,54.67
2018-11-28T02:55:10.497Z,47.30
2018-11-28T02:57:39.097Z,56.07
2018-11-28T03:00:10.051Z,56.53
2018-11-28T03:02:38.308Z,46.10
2018-11-28T03:05:08.031Z,44.83
2018-11-28T03:07:36.545Z,53.50
2018-11-28T03:10:08.203Z,49.03
2018-11-28T03:12:36.515Z,46.93
2018-11-28T03:15:05.489Z,56.70
2018-11-28T03:17:34.096Z,58.63
2018-11-28T03:20:02.720Z,46.13
2018-11-28T03:22:31.018Z,45.87
2018-11-28T03:24:59.323Z,53.33
2018-11-28T03:27:27.589Z,54.00
2018-11-28T03:29:55.857Z,47.30
2018-11-28T03:32:24.449Z,44.93
2018-11-28T03:34:52.778Z,43.80
2018-11-28T03:37:21.063Z,51.10
2018-11-28T03:39:49.327Z,37.07
2018-11-28T03:42:17.616Z,41.73
2018-11-28T03:44:45.883Z,43.70
2018-11-28T03:47:14.127Z,49.00
2018-11-28T03:49:42.431Z,54.00
2018-11-28T03:52:10.715Z,49.13
2018-11-28T03:54:39.415Z,47.67
2018-11-28T03:57:08.125Z,47.67
2018-11-28T03:59:36.872Z,58.87
2018-11-28T04:02:05.769Z,48.20
2018-11-28T04:04:34.560Z,43.43
2018-11-28T04:07:03.347Z,48.00
2018-11-28T04:09:31.616Z,44.50
2018-11-28T04:11:59.909Z,50.90
2018-11-28T04:14:28.532Z,51.63
2018-11-28T04:16:56.793Z,44.13
2018-11-28T04:19:25.106Z,43.40
2018-11-28T04:21:53.357Z,48.33
2018-11-28T04:24:21.608Z,52.03
2018-11-28T04:26:50.240Z,41.70
2018-11-28T04:29:18.525Z,44.47
2018-11-28T04:31:46.796Z,44.13
2018-11-28T04:34:15.548Z,55.03
2018-11-28T04:36:43.816Z,39.17
2018-11-28T04:39:12.135Z,57.57
2018-11-28T04:41:40.433Z,50.97
2018-11-28T04:44:09.077Z,55.20
2018-11-28T04:46:37.360Z,50.23
2018-11-28T04:49:05.774Z,49.10
2018-11-28T04:51:34.112Z,41.23
2018-11-28T04:54:02.405Z,47.20
2018-11-28T04:56:30.709Z,47.17
2018-11-28T04:58:59.125Z,46.80
2018-11-28T05:01:27.418Z,60.30
2018-11-28T05:03:55.713Z,52.33
2018-11-28T05:06:35.878Z,48.50
2018-11-28T05:09:04.586Z,53.63
2018-11-28T05:11:32.857Z,57.30
2018-11-28T05:14:01.243Z,58.77
2018-11-28T05:16:29.564Z,50.40
2018-11-28T05:18:57.896Z,46.50
2018-11-28T05:21:26.165Z,42.00
2018-11-28T05:23:54.760Z,41.37
2018-11-28T05:26:23.099Z,53.87
2018-11-28T05:28:51.356Z,52.43
2018-11-28T05:31:19.684Z,46.77
2018-11-28T05:33:48.198Z,40.77
2018-11-28T05:36:17.075Z,53.03
2018-11-28T05:38:45.390Z,60.60
2018-11-28T05:41:13.636Z,48.97
2018-11-28T05:43:43.616Z,50.57
2018-11-28T05:46:11.900Z,54.73
2018-11-28T05:48:40.157Z,53.37
2018-11-28T05:51:08.435Z,45.50
2018-11-28T05:53:37.195Z,50.13
2018-11-28T05:56:05.920Z,48.00
2018-11-28T05:58:38.292Z,55.60
2018-11-28T06:01:06.755Z,46.90
2018-11-28T06:03:35.039Z,54.53
2018-11-28T06:06:04.592Z,47.20
2018-11-28T06:08:32.892Z,56.43
2018-11-28T06:11:01.156Z,52.80
2018-11-28T06:13:31.225Z,53.00
2018-11-28T06:16:00.003Z,53.03
2018-11-28T06:18:28.310Z,54.00
2018-11-28T06:20:56.800Z,48.17
2018-11-28T06:23:25.425Z,54.43
2018-11-28T06:25:53.695Z,60.90
2018-11-28T06:28:22.000Z,51.23
2018-11-28T06:30:50.286Z,51.47
2018-11-28T06:33:18.563Z,47.50
2018-11-28T06:35:46.987Z,45.30
2018-11-28T06:38:15.506Z,59.70
2018-11-28T06:40:43.803Z,47.97
2018-11-28T06:43:12.376Z,51.77
2018-11-28T06:45:40.672Z,50.60
2018-11-28T06:48:08.958Z,44.93
2018-11-28T06:50:38.096Z,48.30
2018-11-28T06:53:06.381Z,52.00
2018-11-28T06:55:35.379Z,64.13
2018-11-28T06:58:04.889Z,50.20
2018-11-28T07:00:33.175Z,48.87
2018-11-28T07:03:01.489Z,70.13
2018-11-28T07:05:29.984Z,43.73
2018-11-28T07:07:58.340Z,52.60
2018-11-28T07:10:26.640Z,56.20
2018-11-28T07:12:55.005Z,52.53
2018-11-28T07:15:24.269Z,48.63
2018-11-28T07:17:52.623Z,57.17
2018-11-28T07:20:21.927Z,47.10
2018-11-28T07:22:50.277Z,53.30
2018-11-28T07:25:19.039Z,45.27
2018-11-28T07:27:48.064Z,59.60
2018-11-28T07:30:19.257Z,61.03
2018-11-28T07:32:48.867Z,63.07
2018-11-28T07:35:17.150Z,50.60
2018-11-28T07:37:45.852Z,58.50
2018-11-28T07:40:15.479Z,49.63
2018-11-28T07:42:46.481Z,62.87
2018-11-28T07:45:14.817Z,49.43
2018-11-28T07:47:43.114Z,50.83
2018-11-28T07:50:11.745Z,50.67
2018-11-28T07:52:40.755Z,58.37
2018-11-28T07:55:10.917Z,44.13
2018-11-28T07:57:40.002Z,45.07
2018-11-28T08:00:11.944Z,43.50
2018-11-28T08:02:40.265Z,53.80
2018-11-28T08:05:11.471Z,55.83
2018-11-28T08:07:39.799Z,49.07
2018-11-28T08:10:09.715Z,49.50
2018-11-28T08:12:38.097Z,52.43
2018-11-28T08:15:22.283Z,51.00
2018-11-28T08:17:52.668Z,54.70
2018-11-28T08:20:21.654Z,54.37
2018-11-28T08:22:49.921Z,49.37
2018-11-28T08:25:18.456Z,56.13
2018-11-28T08:27:47.714Z,41.50
2018-11-28T08:30:21.771Z,46.80
2018-11-28T08:35:25.330Z,51.57
2018-11-28T08:37:53.632Z,48.87
2018-11-28T08:40:25.010Z,49.67
2018-11-28T08:42:55.514Z,52.03
2018-11-28T08:45:26.124Z,41.77
2018-11-28T08:47:55.974Z,47.10
2018-11-28T08:50:27.026Z,48.63
2018-11-28T08:52:55.308Z,54.97
2018-11-28T08:55:23.640Z,67.73
2018-11-28T08:57:52.017Z,53.53
2018-11-28T09:00:21.876Z,61.93
2018-11-28T09:02:53.807Z,55.80
2018-11-28T09:05:22.144Z,48.93
2018-11-28T09:07:51.260Z,50.63
2018-11-28T09:10:20.092Z,49.57
2018-11-28T09:12:49.933Z,52.23
2018-11-28T09:15:28.189Z,64.00
2018-11-28T09:18:00.208Z,48.17
2018-11-28T09:20:28.874Z,40.40
2018-11-28T09:22:58.376Z,54.83
2018-11-28T09:28:00.623Z,43.13
2018-11-28T09:30:29.031Z,56.50
2018-11-28T09:32:57.368Z,42.00
2018-11-28T09:35:26.268Z,37.53
2018-11-28T09:37:54.833Z,45.80
2018-11-28T09:40:25.070Z,36.27
2018-11-28T09:42:55.403Z,42.50
2018-11-28T09:45:23.988Z,51.50
2018-11-28T09:47:52.476Z,48.53
2018-11-28T09:50:24.429Z,47.30
2018-11-28T09:52:52.718Z,40.77
2018-11-28T09:55:24.314Z,42.73
2018-11-28T09:57:52.622Z,36.97
2018-11-28T10:00:23.561Z,44.47
2018-11-28T10:02:53.808Z,42.60
2018-11-28T10:05:24.928Z,48.13
2018-11-28T10:07:54.196Z,53.97
2018-11-28T10:10:22.812Z,47.43
2018-11-28T10:12:51.195Z,40.40
2018-11-28T10:15:21.631Z,40.83
2018-11-28T10:17:50.199Z,41.67
2018-11-28T10:20:18.984Z,46.03
2018-11-28T10:22:47.935Z,47.10
2018-11-28T10:25:18.055Z,49.97
2018-11-28T10:27:49.041Z,55.07
2018-11-28T10:30:26.123Z,40.63
2018-11-28T10:32:54.692Z,44.70
2018-11-28T10:35:23.641Z,39.50
2018-11-28T10:37:51.936Z,55.17
2018-11-28T10:40:21.076Z,37.60
2018-11-28T10:42:51.796Z,49.70
2018-11-28T10:45:21.007Z,39.07
2018-11-28T10:47:49.616Z,50.17
2018-11-28T10:50:19.515Z,36.43
2018-11-28T10:52:48.020Z,38.97
2018-11-28T10:55:17.255Z,43.83
2018-11-28T10:57:46.063Z,36.97
2018-11-28T11:00:26.541Z,38.87
2018-11-28T11:03:00.247Z,36.03
2018-11-28T11:05:34.039Z,35.70
2018-11-28T11:08:07.748Z,36.90
2018-11-28T11:10:41.474Z,34.63
2018-11-28T11:13:16.798Z,32.03
2018-11-28T11:15:49.307Z,38.10
2018-11-28T11:18:17.600Z,43.10
2018-11-28T11:20:45.921Z,33.40
2018-11-28T11:23:14.249Z,39.23
2018-11-28T11:25:42.583Z,37.17
2018-11-28T11:28:11.088Z,42.27
2018-11-28T11:30:39.709Z,39.13
2018-11-28T11:33:08.019Z,33.37
2018-11-28T11:35:36.904Z,37.47
2018-11-28T11:38:05.528Z,35.97
2018-11-28T11:40:34.124Z,41.53
2018-11-28T11:43:04.187Z,37.43
2018-11-28T11:45:32.493Z,35.70
2018-11-28T11:48:01.101Z,46.30
2018-11-28T11:50:31.438Z,35.33
2018-11-28T11:52:59.718Z,36.93
2018-11-28T11:55:27.994Z,39.50
2018-11-28T11:57:56.271Z,47.13
2018-11-28T12:00:25.471Z,35.37
2018-11-28T12:03:16.633Z,37.60
2018-11-28T12:05:48.343Z,35.73
2018-11-28T12:08:16.672Z,37.97
2018-11-28T12:10:45.280Z,37.83
2018-11-28T12:13:13.820Z,38.47
2018-11-28T12:15:42.168Z,48.43
2018-11-28T12:18:10.496Z,34.10
2018-11-28T12:20:42.830Z,33.27
2018-11-28T12:23:11.518Z,33.00
2018-11-28T12:25:40.147Z,37.33
2018-11-28T12:28:09.172Z,35.87
2018-11-28T12:30:37.447Z,38.17
2018-11-28T12:33:06.396Z,33.33
2018-11-28T12:35:34.757Z,34.90
2018-11-28T12:38:03.337Z,105.70
2018-11-28T12:40:32.748Z,37.20
2018-11-28T12:43:02.481Z,42.80
2018-11-28T12:45:30.761Z,35.30
2018-11-28T12:47:59.136Z,36.30
2018-11-28T12:50:28.468Z,35.10
2018-11-28T12:52:57.935Z,32.03
2018-11-28T12:55:26.257Z,31.60
2018-11-28T12:57:55.552Z,38.97
2018-11-28T13:00:25.932Z,34.47
2018-11-28T13:02:54.564Z,31.90
2018-11-28T13:05:26.472Z,26.97
2018-11-28T13:07:54.853Z,30.70
2018-11-28T13:10:27.386Z,27.87
2018-11-28T13:12:55.961Z,44.80
2018-11-28T13:15:25.251Z,27.33
2018-11-28T13:17:53.587Z,31.00
2018-11-28T13:20:22.452Z,31.90
2018-11-28T13:22:51.922Z,37.10
2018-11-28T13:25:24.389Z,33.30
2018-11-28T13:27:52.672Z,26.10
2018-11-28T13:30:21.711Z,31.30
2018-11-28T13:32:50.598Z,25.53
2018-11-28T13:35:24.147Z,33.90
2018-11-28T13:37:59.187Z,28.57
2018-11-28T13:40:27.908Z,37.30
2018-11-28T13:42:56.269Z,25.97
2018-11-28T13:45:27.016Z,30.13
2018-11-28T13:47:55.952Z,25.40
2018-11-28T13:50:24.636Z,26.73
2018-11-28T13:52:53.898Z,28.40
2018-11-28T13:55:38.845Z,29.37
2018-11-28T13:58:02.571Z,32.23
2018-11-28T14:00:31.105Z,28.97
2018-11-28T14:02:59.483Z,37.17
2018-11-28T14:05:28.099Z,27.77
2018-11-28T14:07:56.455Z,33.20
2018-11-28T14:10:24.741Z,25.63
2018-11-28T14:12:53.994Z,22.90
2018-11-28T14:15:22.900Z,26.70
2018-11-28T14:17:54.483Z,34.63
2018-11-28T14:20:22.821Z,26.33
2018-11-28T14:22:51.104Z,27.67
2018-11-28T14:25:19.408Z,30.17
2018-11-28T14:27:47.862Z,31.07
2018-11-28T14:30:17.091Z,29.60
2018-11-28T14:32:46.524Z,31.30
2018-11-28T14:35:14.977Z,30.17
2018-11-28T14:37:43.663Z,34.47
2018-11-28T14:40:27.322Z,29.30
2018-11-28T14:42:57.660Z,33.70
2018-11-28T14:45:26.348Z,29.57
2018-11-28T14:47:54.806Z,26.37
2018-11-28T14:50:25.159Z,33.00
2018-11-28T14:52:54.401Z,34.17
2018-11-28T14:55:23.705Z,28.03
2018-11-28T14:57:51.992Z,28.40
2018-11-28T15:00:23.358Z,34.73
2018-11-28T15:02:53.723Z,36.13
2018-11-28T15:05:36.796Z,34.87
2018-11-28T15:08:08.197Z,38.13
2018-11-28T15:10:47.402Z,43.43
2018-11-28T15:13:15.701Z,35.87
2018-11-28T15:15:43.998Z,30.60
2018-11-28T15:18:12.333Z,34.27
2018-11-28T15:20:40.625Z,31.70
2018-11-28T15:23:08.944Z,36.83
2018-11-28T15:25:37.271Z,34.63
2018-11-28T15:28:05.645Z,30.40
2018-11-28T15:30:33.958Z,30.37
2018-11-28T15:33:02.522Z,30.90
2018-11-28T15:35:30.833Z,37.30
2018-11-28T15:37:59.237Z,36.87
2018-11-28T15:40:27.528Z,35.77
2018-11-28T15:42:55.826Z,34.23
2018-11-28T15:45:24.532Z,42.03
2018-11-28T15:47:53.260Z,33.97
2018-11-28T15:50:22.592Z,31.40
2018-11-28T15:52:50.864Z,49.00
2018-11-28T15:55:19.614Z,36.73
2018-11-28T15:57:47.996Z,40.27
2018-11-28T16:00:22.396Z,37.73
2018-11-28T16:02:49.890Z,39.33
2018-11-28T16:05:18.218Z,39.07
2018-11-28T16:07:46.519Z,39.83
2018-11-28T16:10:20.479Z,54.33
2018-11-28T16:12:49.500Z,39.37
2018-11-28T16:15:22.989Z,40.70
2018-11-28T16:17:51.355Z,35.03
2018-11-28T16:20:20.000Z,61.93
2018-11-28T16:22:48.359Z,40.03
2018-11-28T16:25:17.042Z,41.83
2018-11-28T16:27:45.316Z,42.77
2018-11-28T16:30:14.477Z,42.23
2018-11-28T16:32:44.090Z,49.17
2018-11-28T16:35:14.337Z,41.50
2018-11-28T16:37:42.628Z,45.10
2018-11-28T16:40:14.958Z,38.43
2018-11-28T16:42:43.364Z,43.43
2018-11-28T16:45:14.250Z,37.03
2018-11-28T16:47:43.036Z,38.40
2018-11-28T16:50:13.218Z,42.93
2018-11-28T16:52:42.275Z,46.00
2018-11-28T16:55:14.743Z,46.23
2018-11-28T16:57:48.353Z,44.53
2018-11-28T17:00:22.507Z,49.58
2018-11-28T17:02:51.135Z,42.90
2018-11-28T17:05:21.077Z,41.13
2018-11-28T17:07:49.608Z,46.83
2018-11-28T17:10:19.938Z,45.83
2018-11-28T17:12:49.451Z,48.40
2018-11-28T17:15:18.568Z,42.90
2018-11-28T17:17:46.983Z,42.80
2018-11-28T17:20:18.293Z,44.47
2018-11-28T17:22:47.281Z,42.30
2018-11-28T17:25:24.375Z,40.90
2018-11-28T17:27:52.790Z,42.90
2018-11-28T17:30:25.140Z,44.23
2018-11-28T17:32:53.569Z,42.80
2018-11-28T17:35:21.830Z,42.00
2018-11-28T17:37:50.623Z,45.83
2018-11-28T17:40:20.573Z,42.13
2018-11-28T17:42:50.119Z,40.30
2018-11-28T17:45:18.824Z,40.67
2018-11-28T17:47:47.155Z,41.70
2018-11-28T17:50:18.890Z,49.27
2018-11-28T17:53:08.729Z,43.10
2018-11-28T17:55:56.851Z,46.20
2018-11-28T17:58:25.209Z,45.43
2018-11-28T18:00:53.726Z,49.23
2018-11-28T18:03:22.693Z,43.77
2018-11-28T18:05:51.368Z,42.70
2018-11-28T18:08:19.675Z,46.57
2018-11-28T18:10:48.234Z,44.37
2018-11-28T18:13:18.139Z,39.63
2018-11-28T18:16:01.124Z,41.43
2018-11-28T18:18:31.043Z,52.60
2018-11-28T18:20:58.814Z,36.00
2018-11-28T18:23:27.476Z,41.17
2018-11-28T18:25:56.215Z,38.53
2018-11-28T18:28:24.715Z,35.00
2018-11-28T18:30:53.010Z,39.23
2018-11-28T18:33:21.424Z,38.90
2018-11-28T18:35:49.857Z,43.87
2018-11-28T18:38:18.284Z,35.90
2018-11-28T18:40:46.573Z,30.93
2018-11-28T18:43:14.996Z,37.13
2018-11-28T18:45:46.108Z,35.90
2018-11-28T18:48:14.414Z,35.33
2018-11-28T18:50:42.796Z,39.93
2018-11-28T18:53:11.156Z,39.63
2018-11-28T18:55:39.560Z,28.57
2018-11-28T18:58:09.691Z,33.03
2018-11-28T19:00:38.129Z,35.07
2018-11-28T19:03:07.572Z,29.50
2018-11-28T19:05:36.501Z,35.33
2018-11-28T19:08:04.975Z,35.23
2018-11-28T19:10:33.372Z,32.93
2018-11-28T19:13:01.670Z,32.60
2018-11-28T19:15:29.987Z,34.53
2018-11-28T19:17:59.047Z,28.07
2018-11-28T19:20:27.417Z,37.13
2018-11-28T19:22:56.945Z,25.93
2018-11-28T19:25:27.122Z,31.33
2018-11-28T19:27:55.433Z,25.20
2018-11-28T19:30:31.165Z,27.23
2018-11-28T19:33:00.558Z,32.00
2018-11-28T19:35:29.457Z,26.27
2018-11-28T19:37:58.076Z,27.07
2018-11-28T19:40:31.277Z,24.13
2018-11-28T19:42:59.604Z,29.00
2018-11-28T19:45:28.569Z,24.77
2018-11-28T19:47:56.878Z,24.30
2018-11-28T19:50:26.908Z,21.40
2018-11-28T19:52:55.423Z,27.93
2018-11-28T19:55:23.751Z,21.00
2018-11-28T19:57:52.136Z,24.73
2018-11-28T20:00:20.512Z,18.70
2018-11-28T20:02:49.110Z,21.67
2018-11-28T20:05:17.633Z,23.37
2018-11-28T20:07:47.235Z,22.00
2018-11-28T20:10:16.948Z,26.23
2018-11-28T20:12:45.253Z,23.23
2018-11-28T20:15:16.910Z,21.83
2018-11-28T20:17:45.421Z,26.00
2018-11-28T20:20:14.563Z,22.00
2018-11-28T20:22:43.321Z,23.03
2018-11-28T20:25:12.924Z,22.77
2018-11-28T20:27:41.829Z,21.83
2018-11-28T20:30:46.836Z,21.50
2018-11-28T20:33:16.498Z,26.30
2018-11-28T20:35:45.845Z,25.63
2018-11-28T20:38:19.518Z,21.23
2018-11-28T20:40:46.586Z,20.23
2018-11-28T20:43:14.981Z,26.50
2018-11-28T20:45:43.606Z,23.50
2018-11-28T20:48:11.903Z,23.40
2018-11-28T20:50:40.220Z,18.03
2018-11-28T20:53:10.002Z,23.03
2018-11-28T20:55:38.305Z,18.07
2018-11-28T20:58:07.225Z,21.50
2018-11-28T21:00:35.643Z,28.47
2018-11-28T21:03:03.970Z,21.13
2018-11-28T21:05:32.535Z,19.73
2018-11-28T21:08:03.352Z,16.70
2018-11-28T21:10:40.872Z,17.52
2018-11-28T21:13:12.947Z,27.03
2018-11-28T21:15:42.369Z,19.50
2018-11-28T21:18:13.853Z,22.93
2018-11-28T21:20:43.490Z,19.40
2018-11-28T21:23:13.949Z,18.80
2018-11-28T21:25:42.219Z,20.43
2018-11-28T21:28:10.501Z,14.40
2018-11-28T21:30:38.922Z,18.63
2018-11-28T21:33:08.544Z,16.20
2018-11-28T21:35:38.635Z,18.30
2018-11-28T21:38:07.741Z,18.53
2018-11-28T21:40:36.633Z,15.90
2018-11-28T21:43:22.844Z,13.93
2018-11-28T21:45:51.631Z,20.00
2018-11-28T21:48:20.028Z,17.00
2018-11-28T21:50:48.422Z,15.03
2018-11-28T21:53:21.526Z,16.60
2018-11-28T21:55:50.560Z,16.50
2018-11-28T21:58:21.007Z,18.33
2018-11-28T22:00:50.869Z,11.73
2018-11-28T22:03:19.677Z,13.47
2018-11-28T22:05:48.510Z,15.77
2018-11-28T22:08:17.400Z,13.53
2018-11-28T22:10:53.670Z,17.15
2018-11-28T22:13:22.142Z,14.33
2018-11-28T22:15:50.588Z,17.17
2018-11-28T22:18:19.289Z,13.37
2018-11-28T22:20:47.996Z,11.13
2018-11-28T22:23:16.282Z,14.27
2018-11-28T22:25:44.594Z,22.13
2018-11-28T22:28:12.916Z,16.77
2018-11-28T22:30:41.587Z,11.50
2018-11-28T22:33:09.882Z,16.10
2018-11-28T22:35:38.650Z,13.07
2018-11-28T22:38:06.945Z,12.90
2018-11-28T22:40:35.573Z,21.43
2018-11-28T22:43:03.929Z,17.83
2018-11-28T22:45:34.463Z,13.47
2018-11-28T22:48:03.132Z,12.03
2018-11-28T22:50:31.633Z,15.67
2018-11-28T22:52:59.926Z,13.87
2018-11-28T22:55:28.401Z,15.00
2018-11-28T22:57:56.884Z,9.00
2018-11-28T23:00:32.511Z,11.60
2018-11-28T23:03:04.047Z,13.27
2018-11-28T23:06:04.648Z,14.50
2018-11-28T23:08:33.170Z,13.63
2018-11-28T23:11:02.080Z,11.53
2018-11-28T23:13:30.460Z,13.30
2018-11-28T23:15:59.022Z,11.17
2018-11-28T23:18:27.320Z,16.30
2018-11-28T23:20:55.993Z,12.47
2018-11-28T23:23:24.663Z,11.47
2018-11-28T23:25:53.141Z,13.90
2018-11-28T23:28:21.395Z,18.67
2018-11-28T23:30:49.673Z,13.53
2018-11-28T23:33:17.961Z,10.90
2018-11-28T23:35:46.212Z,12.00
2018-11-28T23:38:14.495Z,12.57
2018-11-28T23:40:42.846Z,9.47
2018-11-28T23:43:11.142Z,11.27
2018-11-28T23:45:39.408Z,11.47
2018-11-28T23:48:07.665Z,9.77
2018-11-28T23:50:36.304Z,10.83
2018-11-28T23:53:04.564Z,9.67
2018-11-28T23:55:32.859Z,9.07
2018-11-28T23:58:01.496Z,10.03
